Time;durP1;ratioP1;P1;durP2;ratioP2;P2;SDS_P1;SDS_P2;PMS_P1;PMS_P2;Temp;Humidity;BMP_temperature;BMP_pressure;BME280_temperature;BME280_humidity;BME280_pressure;Samples;Min_cycle;Max_cycle;Signal;HPM_P1;HPM_P2
2024/02/14 00:00:36;;;;;;;5.82;5.32;;;;;;;;;;4891725;29;20142;-75
2024/02/14 00:03:03;;;;;;;7.05;3.80;;;;;;;;;;4906713;29;20041;-75
2024/02/14 00:05:30;;;;;;;4.90;4.40;;;;;;;;;;4892382;29;20044;-75
2024/02/14 00:07:56;;;;;;;4.32;3.92;;;;;;;;;;4890748;29;20056;-76
2024/02/14 00:10:22;;;;;;;13.70;11.93;;;;;;;;;;4895050;29;20571;-74
2024/02/14 00:12:49;;;;;;;4.85;4.38;;;;;;;;;;4898484;29;20045;-76
2024/02/14 00:15:16;;;;;;;11.73;8.07;;;;;;;;;;4899757;29;20684;-76
2024/02/14 00:17:43;;;;;;;8.48;6.50;;;;;;;;;;4896326;29;20064;-75
2024/02/14 00:20:13;;;;;;;8.73;6.70;;;;;;;;;;4894750;29;20037;-75
2024/02/14 00:22:53;;;;;;;4.30;3.95;;;;;;;;;;4899480;29;20119;-75
2024/02/14 00:25:19;;;;;;;11.30;9.48;;;;;;;;;;4905655;29;20103;-76
2024/02/14 00:27:54;;;;;;;8.68;5.75;;;;;;;;;;4918893;29;20454;-75
2024/02/14 00:30:22;;;;;;;12.02;9.68;;;;;;;;;;4922882;29;20043;-77
2024/02/14 00:33:08;;;;;;;4.80;4.10;;;;;;;;;;4924591;29;20099;-77
2024/02/14 00:35:35;;;;;;;8.40;5.57;;;;;;;;;;4921977;29;20084;-76
2024/02/14 00:38:01;;;;;;;9.20;7.15;;;;;;;;;;4932028;29;20055;-74
2024/02/14 00:40:27;;;;;;;8.35;7.47;;;;;;;;;;4905745;29;20071;-76
2024/02/14 00:42:53;;;;;;;6.97;6.28;;;;;;;;;;4920449;29;20047;-76
2024/02/14 00:45:20;;;;;;;4.40;4.05;;;;;;;;;;4924485;29;20047;-77
2024/02/14 00:47:46;;;;;;;8.98;7.38;;;;;;;;;;4925803;29;20056;-77
2024/02/14 00:50:13;;;;;;;10.98;7.18;;;;;;;;;;4937365;29;20466;-74
2024/02/14 00:52:40;;;;;;;7.97;6.10;;;;;;;;;;4915540;29;20179;-74
2024/02/14 00:55:06;;;;;;;9.20;8.25;;;;;;;;;;4897726;29;20657;-74
2024/02/14 00:57:33;;;;;;;5.35;4.80;;;;;;;;;;4911539;29;20079;-73
2024/02/14 00:59:59;;;;;;;5.03;4.43;;;;;;;;;;4928874;29;20036;-73
2024/02/14 01:02:29;;;;;;;9.95;5.40;;;;;;;;;;4909044;29;20099;-73
2024/02/14 01:04:55;;;;;;;5.07;3.70;;;;;;;;;;4895452;29;20099;-73
2024/02/14 01:07:21;;;;;;;5.07;4.57;;;;;;;;;;4892303;29;20138;-73
2024/02/14 01:09:47;;;;;;;5.90;4.97;;;;;;;;;;4893765;29;20033;-73
2024/02/14 01:12:14;;;;;;;7.20;6.47;;;;;;;;;;4894571;29;20044;-72
2024/02/14 01:14:41;;;;;;;6.78;6.07;;;;;;;;;;4895046;29;20036;-73
2024/02/14 01:17:08;;;;;;;11.10;9.15;;;;;;;;;;4894087;29;20059;-73
2024/02/14 01:19:35;;;;;;;6.50;5.50;;;;;;;;;;4894813;29;20033;-72
2024/02/14 01:22:01;;;;;;;5.40;4.90;;;;;;;;;;4894928;29;20123;-73
2024/02/14 01:24:27;;;;;;;5.47;4.55;;;;;;;;;;4894420;29;20770;-73
2024/02/14 01:26:54;;;;;;;6.65;5.60;;;;;;;;;;4893868;29;20048;-73
2024/02/14 01:29:21;;;;;;;14.13;9.50;;;;;;;;;;4894616;29;20598;-74
2024/02/14 01:31:50;;;;;;;3.70;3.50;;;;;;;;;;4909285;29;20123;-73
2024/02/14 01:34:16;;;;;;;7.38;6.68;;;;;;;;;;4894675;29;20047;-74
2024/02/14 01:36:42;;;;;;;7.72;7.03;;;;;;;;;;4890981;29;20052;-73
2024/02/14 01:39:11;;;;;;;11.68;8.60;;;;;;;;;;4894804;29;20079;-73
2024/02/14 01:41:38;;;;;;;9.85;6.10;;;;;;;;;;4893850;29;20044;-74
2024/02/14 01:44:04;;;;;;;4.25;3.85;;;;;;;;;;4894682;29;20203;-74
2024/02/14 01:46:31;;;;;;;7.60;5.57;;;;;;;;;;4893187;29;20071;-74
2024/02/14 01:49:01;;;;;;;6.50;5.82;;;;;;;;;;4900732;29;20044;-74
2024/02/14 01:51:27;;;;;;;9.50;6.40;;;;;;;;;;4899772;29;20041;-74
2024/02/14 01:53:53;;;;;;;10.02;8.00;;;;;;;;;;4894544;29;20044;-74
2024/02/14 01:56:19;;;;;;;4.60;3.92;;;;;;;;;;4893946;29;20542;-74
2024/02/14 01:58:45;;;;;;;8.13;2.75;;;;;;;;;;4896332;29;20100;-75
2024/02/14 02:01:11;;;;;;;5.25;4.75;;;;;;;;;;4900597;29;20036;-74
2024/02/14 02:03:38;;;;;;;7.93;3.25;;;;;;;;;;4881157;29;20039;-74
2024/02/14 02:06:05;;;;;;;5.07;4.68;;;;;;;;;;4912013;29;20051;-74
2024/02/14 02:08:32;;;;;;;8.65;6.45;;;;;;;;;;4926636;29;20631;-74
2024/02/14 02:10:58;;;;;;;11.25;8.90;;;;;;;;;;4927872;29;20036;-75
2024/02/14 02:13:44;;;;;;;7.28;5.45;;;;;;;;;;4925135;29;20040;-74
2024/02/14 02:16:31;;;;;;;5.38;4.93;;;;;;;;;;4910556;29;20056;-74
2024/02/14 02:19:28;;;;;;;5.80;4.18;;;;;;;;;;4912280;29;20058;-74
2024/02/14 02:22:14;;;;;;;10.77;8.68;;;;;;;;;;4913018;29;20091;-74
2024/02/14 02:25:02;;;;;;;7.03;4.53;;;;;;;;;;4913450;29;20047;-75
2024/02/14 02:27:37;;;;;;;8.10;6.60;;;;;;;;;;4910428;29;20050;-74
2024/02/14 02:30:23;;;;;;;3.47;3.28;;;;;;;;;;4911174;29;20036;-75
2024/02/14 02:32:52;;;;;;;8.82;6.75;;;;;;;;;;4926899;29;20494;-74
2024/02/14 02:35:21;;;;;;;6.60;5.63;;;;;;;;;;4911132;29;20042;-74
2024/02/14 02:38:07;;;;;;;4.30;4.00;;;;;;;;;;4897918;29;20415;-74
2024/02/14 02:40:53;;;;;;;3.50;3.30;;;;;;;;;;4892686;29;20447;-74
2024/02/14 02:43:38;;;;;;;9.32;8.45;;;;;;;;;;4891845;29;20052;-74
2024/02/14 02:46:25;;;;;;;13.40;9.40;;;;;;;;;;4892177;28;20394;-74
2024/02/14 02:49:13;;;;;;;4.85;4.47;;;;;;;;;;4893047;29;20116;-74
2024/02/14 02:51:43;;;;;;;6.10;5.20;;;;;;;;;;4892747;29;20091;-74
2024/02/14 02:54:28;;;;;;;7.95;6.68;;;;;;;;;;4892401;29;20056;-73
2024/02/14 02:57:14;;;;;;;4.07;3.70;;;;;;;;;;4899489;29;20051;-74
2024/02/14 02:59:42;;;;;;;8.95;7.43;;;;;;;;;;4911620;29;20032;-73
2024/02/14 03:02:11;;;;;;;5.43;4.55;;;;;;;;;;4925877;29;20662;-76
2024/02/14 03:04:58;;;;;;;12.32;5.15;;;;;;;;;;4910834;29;20043;-74
2024/02/14 03:07:45;;;;;;;6.63;6.03;;;;;;;;;;4909469;29;20207;-74
2024/02/14 03:10:31;;;;;;;3.95;3.67;;;;;;;;;;4910184;29;20055;-74
2024/02/14 03:13:17;;;;;;;6.18;4.40;;;;;;;;;;4911318;29;20051;-73
2024/02/14 03:16:04;;;;;;;6.93;6.22;;;;;;;;;;4911582;29;20095;-73
2024/02/14 03:18:30;;;;;;;7.68;5.72;;;;;;;;;;4909025;29;20422;-73
2024/02/14 03:20:56;;;;;;;4.03;3.72;;;;;;;;;;4908461;29;20099;-74
2024/02/14 03:23:23;;;;;;;4.85;4.45;;;;;;;;;;4905744;29;20068;-73
2024/02/14 03:25:49;;;;;;;15.68;10.02;;;;;;;;;;4906166;29;20127;-74
2024/02/14 03:28:15;;;;;;;15.57;11.93;;;;;;;;;;4900643;29;20088;-73
2024/02/14 03:30:41;;;;;;;4.40;3.63;;;;;;;;;;4892680;29;20084;-74
2024/02/14 03:33:10;;;;;;;4.85;4.45;;;;;;;;;;4908220;29;20060;-73
2024/02/14 03:35:36;;;;;;;11.13;8.68;;;;;;;;;;4892038;29;20127;-74
2024/02/14 03:38:03;;;;;;;4.57;4.15;;;;;;;;;;4906325;29;20049;-74
2024/02/14 03:40:30;;;;;;;12.32;9.13;;;;;;;;;;4892053;29;20527;-74
2024/02/14 03:42:56;;;;;;;6.90;6.20;;;;;;;;;;4892685;29;20519;-74
2024/02/14 03:45:23;;;;;;;5.13;4.72;;;;;;;;;;4891246;29;20048;-74
2024/02/14 03:47:50;;;;;;;10.88;8.55;;;;;;;;;;4918440;29;20598;-74
2024/02/14 03:50:16;;;;;;;15.27;7.70;;;;;;;;;;4926585;29;20131;-74
2024/02/14 03:52:42;;;;;;;3.25;3.05;;;;;;;;;;4925210;29;20062;-74
2024/02/14 03:55:09;;;;;;;5.55;4.53;;;;;;;;;;4911356;29;20047;-74
2024/02/14 03:57:38;;;;;;;12.73;10.82;;;;;;;;;;4908376;29;20064;-74
2024/02/14 04:00:07;;;;;;;5.90;4.50;;;;;;;;;;4911203;29;20040;-74
2024/02/14 04:02:41;;;;;;;8.07;7.25;;;;;;;;;;4925508;29;20044;-74
2024/02/14 04:05:07;;;;;;;5.95;4.00;;;;;;;;;;4909749;29;20036;-75
2024/02/14 04:07:34;;;;;;;10.32;9.32;;;;;;;;;;4899625;29;20049;-76
2024/02/14 04:10:00;;;;;;;8.10;5.60;;;;;;;;;;4892052;29;20038;-74
2024/02/14 04:12:27;;;;;;;9.50;5.45;;;;;;;;;;4891336;29;20499;-75
2024/02/14 04:14:53;;;;;;;12.05;8.30;;;;;;;;;;4875207;29;20111;-73
2024/02/14 04:17:19;;;;;;;5.03;4.65;;;;;;;;;;4890822;29;20084;-73
2024/02/14 04:19:44;;;;;;;11.90;8.32;;;;;;;;;;4889970;29;20040;-73
2024/02/14 04:22:10;;;;;;;14.55;10.82;;;;;;;;;;4890401;29;20043;-73
2024/02/14 04:24:37;;;;;;;12.60;6.70;;;;;;;;;;4890147;29;20041;-73
2024/02/14 04:27:03;;;;;;;13.18;8.48;;;;;;;;;;4890936;29;20128;-73
2024/02/14 04:29:32;;;;;;;12.40;9.95;;;;;;;;;;4890221;29;20124;-74
2024/02/14 04:31:59;;;;;;;11.57;7.32;;;;;;;;;;4905919;29;20048;-73
2024/02/14 04:34:25;;;;;;;9.00;7.53;;;;;;;;;;4892242;29;20060;-74
2024/02/14 04:36:51;;;;;;;4.40;4.07;;;;;;;;;;4890714;29;20099;-73
2024/02/14 04:39:17;;;;;;;6.53;5.85;;;;;;;;;;4892005;29;20068;-73
2024/02/14 04:41:43;;;;;;;8.60;7.35;;;;;;;;;;4891446;29;20135;-73
2024/02/14 04:44:09;;;;;;;13.02;8.55;;;;;;;;;;4891615;29;20772;-73
2024/02/14 04:46:35;;;;;;;5.55;4.95;;;;;;;;;;4890340;29;20040;-73
2024/02/14 04:49:02;;;;;;;7.47;4.78;;;;;;;;;;4891723;29;20033;-73
2024/02/14 04:51:31;;;;;;;8.43;5.50;;;;;;;;;;4891216;29;20052;-73
2024/02/14 04:54:00;;;;;;;12.60;9.27;;;;;;;;;;4890312;29;20028;-72
2024/02/14 04:56:26;;;;;;;5.40;4.85;;;;;;;;;;4890763;29;20052;-73
2024/02/14 04:58:55;;;;;;;12.43;8.10;;;;;;;;;;4874687;29;20033;-72
2024/02/14 05:01:21;;;;;;;5.97;4.88;;;;;;;;;;4891606;29;20040;-71
2024/02/14 05:03:48;;;;;;;9.20;4.97;;;;;;;;;;4890889;29;20028;-74
2024/02/14 05:06:14;;;;;;;4.13;3.83;;;;;;;;;;4889892;29;20041;-74
2024/02/14 05:08:40;;;;;;;7.88;7.07;;;;;;;;;;4889191;29;20100;-76
2024/02/14 05:11:06;;;;;;;12.05;7.95;;;;;;;;;;4875068;29;20040;-75
2024/02/14 05:13:35;;;;;;;8.85;5.85;;;;;;;;;;4877222;29;20044;-74
2024/02/14 05:16:04;;;;;;;8.65;7.78;;;;;;;;;;4876660;29;20048;-74
2024/02/14 05:18:30;;;;;;;8.60;4.80;;;;;;;;;;4889308;29;20555;-75
2024/02/14 05:20:56;;;;;;;14.15;12.35;;;;;;;;;;4875135;29;20037;-75
2024/02/14 05:23:21;;;;;;;12.20;8.40;;;;;;;;;;4874862;29;20037;-75
2024/02/14 05:25:48;;;;;;;11.93;9.60;;;;;;;;;;4875783;29;20374;-74
2024/02/14 05:28:14;;;;;;;10.27;7.93;;;;;;;;;;4889704;29;20052;-75
2024/02/14 05:30:43;;;;;;;14.65;8.98;;;;;;;;;;4875695;29;20044;-74
2024/02/14 05:33:24;;;;;;;10.80;6.47;;;;;;;;;;4875374;29;20049;-75
2024/02/14 05:35:50;;;;;;;3.40;3.17;;;;;;;;;;4875200;29;20124;-75
2024/02/14 05:38:19;;;;;;;13.70;10.10;;;;;;;;;;4848457;29;20051;-74
2024/02/14 05:40:46;;;;;;;7.53;5.70;;;;;;;;;;4876994;29;20100;-76
2024/02/14 05:43:12;;;;;;;10.60;9.18;;;;;;;;;;4894722;29;20068;-75
2024/02/14 05:45:38;;;;;;;7.57;6.85;;;;;;;;;;4892822;29;20572;-75
2024/02/14 05:48:04;;;;;;;6.47;5.53;;;;;;;;;;4907525;29;20043;-74
2024/02/14 05:50:29;;;;;;;9.32;6.10;;;;;;;;;;4912807;29;20068;-75
2024/02/14 05:52:57;;;;;;;6.03;4.68;;;;;;;;;;4927822;29;20067;-77
2024/02/14 05:55:24;;;;;;;5.97;5.32;;;;;;;;;;4911979;29;20522;-75
2024/02/14 05:57:57;;;;;;;5.55;4.88;;;;;;;;;;4896198;29;20048;-76
2024/02/14 06:00:23;;;;;;;10.02;6.60;;;;;;;;;;4912684;29;20032;-75
2024/02/14 06:02:50;;;;;;;6.43;5.57;;;;;;;;;;4909789;29;20511;-75
2024/02/14 06:05:16;;;;;;;8.75;5.22;;;;;;;;;;4907457;29;20036;-73
2024/02/14 06:07:42;;;;;;;5.85;4.38;;;;;;;;;;4914542;29;20563;-73
2024/02/14 06:10:08;;;;;;;6.22;4.72;;;;;;;;;;4894037;29;20124;-73
2024/02/14 06:12:34;;;;;;;7.68;6.68;;;;;;;;;;4895342;29;20079;-73
2024/02/14 06:15:00;;;;;;;12.70;8.02;;;;;;;;;;4896272;29;20032;-73
2024/02/14 06:17:30;;;;;;;6.30;5.70;;;;;;;;;;4899610;29;20060;-73
2024/02/14 06:19:57;;;;;;;5.47;4.38;;;;;;;;;;4880212;29;20134;-73
2024/02/14 06:22:23;;;;;;;6.00;5.30;;;;;;;;;;4905623;29;20044;-71
2024/02/14 06:24:49;;;;;;;12.27;10.20;;;;;;;;;;4917644;29;20561;-73
2024/02/14 06:27:14;;;;;;;10.40;9.30;;;;;;;;;;4909318;28;20554;-72
2024/02/14 06:29:43;;;;;;;11.73;6.55;;;;;;;;;;4902043;29;20149;-73
2024/02/14 06:32:11;;;;;;;3.92;3.63;;;;;;;;;;4881513;29;20050;-71
2024/02/14 06:34:37;;;;;;;10.45;8.38;;;;;;;;;;4891120;29;20752;-72
2024/02/14 06:37:03;;;;;;;13.60;6.20;;;;;;;;;;4896253;29;20048;-72
2024/02/14 06:39:30;;;;;;;4.28;3.45;;;;;;;;;;4893048;29;20048;-73
2024/02/14 06:41:57;;;;;;;8.27;4.38;;;;;;;;;;4909545;29;20036;-73
2024/02/14 06:44:26;;;;;;;6.75;6.10;;;;;;;;;;4907103;29;20032;-73
2024/02/14 06:46:51;;;;;;;4.35;3.95;;;;;;;;;;4925154;29;20044;-73
2024/02/14 06:49:17;;;;;;;7.20;3.20;;;;;;;;;;4911965;29;20054;-73
2024/02/14 06:51:43;;;;;;;7.82;6.63;;;;;;;;;;4894648;29;20040;-72
2024/02/14 06:54:09;;;;;;;3.72;3.42;;;;;;;;;;4920851;29;20024;-72
2024/02/14 06:56:35;;;;;;;5.57;5.03;;;;;;;;;;4921406;28;20080;-73
2024/02/14 06:59:02;;;;;;;9.95;8.95;;;;;;;;;;4908920;29;20032;-73
2024/02/14 07:01:28;;;;;;;4.05;3.75;;;;;;;;;;4899088;29;20171;-72
2024/02/14 07:03:54;;;;;;;8.57;6.90;;;;;;;;;;4922061;29;20095;-73
2024/02/14 07:06:20;;;;;;;4.70;4.32;;;;;;;;;;4923733;29;20127;-72
2024/02/14 07:08:47;;;;;;;5.78;4.90;;;;;;;;;;4905643;29;20376;-72
2024/02/14 07:11:13;;;;;;;4.90;4.45;;;;;;;;;;4908018;29;20040;-72
2024/02/14 07:13:39;;;;;;;5.40;4.68;;;;;;;;;;4892162;29;20035;-72
2024/02/14 07:16:05;;;;;;;11.55;6.63;;;;;;;;;;4910074;29;20061;-72
2024/02/14 07:18:30;;;;;;;8.35;6.13;;;;;;;;;;4892089;28;20052;-73
2024/02/14 07:20:56;;;;;;;7.38;5.95;;;;;;;;;;4890105;29;20526;-72
2024/02/14 07:23:22;;;;;;;5.00;4.50;;;;;;;;;;4904165;29;20452;-73
2024/02/14 07:25:48;;;;;;;10.57;8.05;;;;;;;;;;4887359;29;20190;-73
2024/02/14 07:28:14;;;;;;;6.38;5.78;;;;;;;;;;4902465;29;20131;-73
2024/02/14 07:30:40;;;;;;;7.13;6.35;;;;;;;;;;4907909;29;20083;-74
2024/02/14 07:33:07;;;;;;;5.65;5.00;;;;;;;;;;4904786;29;20041;-73
2024/02/14 07:35:33;;;;;;;9.98;5.75;;;;;;;;;;4892799;29;20056;-74
2024/02/14 07:37:59;;;;;;;9.15;7.93;;;;;;;;;;4888818;29;20127;-73
2024/02/14 07:40:27;;;;;;;7.70;7.10;;;;;;;;;;4908202;29;20518;-72
2024/02/14 07:43:12;;;;;;;10.80;8.40;;;;;;;;;;4879087;29;20119;-72
2024/02/14 07:45:38;;;;;;;12.15;9.13;;;;;;;;;;4907411;29;20590;-73
2024/02/14 07:48:05;;;;;;;5.63;4.97;;;;;;;;;;4904662;28;20063;-73
2024/02/14 07:50:49;;;;;;;4.25;3.95;;;;;;;;;;4904184;29;20035;-73
2024/02/14 07:53:15;;;;;;;5.90;4.63;;;;;;;;;;4890230;29;20558;-72
2024/02/14 07:55:41;;;;;;;4.10;3.80;;;;;;;;;;4890212;29;20161;-72
2024/02/14 07:58:07;;;;;;;3.85;3.65;;;;;;;;;;4916573;29;20138;-73
2024/02/14 08:00:33;;;;;;;3.60;3.40;;;;;;;;;;4919286;29;20130;-74
2024/02/14 08:02:59;;;;;;;6.47;4.00;;;;;;;;;;4892830;29;20043;-73
2024/02/14 08:05:25;;;;;;;10.23;6.57;;;;;;;;;;4861709;29;20032;-73
2024/02/14 08:07:51;;;;;;;4.85;4.38;;;;;;;;;;4864895;29;20048;-73
2024/02/14 08:10:17;;;;;;;4.78;4.32;;;;;;;;;;4907181;29;20447;-73
2024/02/14 08:12:44;;;;;;;4.13;3.83;;;;;;;;;;4892374;29;20441;-73
2024/02/14 08:15:10;;;;;;;6.45;5.80;;;;;;;;;;4907263;29;20036;-72
2024/02/14 08:17:36;;;;;;;4.60;4.20;;;;;;;;;;4898579;29;20055;-74
2024/02/14 08:20:03;;;;;;;3.80;3.50;;;;;;;;;;4911679;29;20127;-73
2024/02/14 08:22:33;;;;;;;;;;;;;;;;;;4910635;29;20037;-72
2024/02/14 08:25:00;;;;;;;11.65;6.78;;;;;;;;;;4903867;29;19961;-73
2024/02/14 08:27:32;;;;;;;6.00;5.27;;;;;;;;;;4923292;28;20135;-73
2024/02/14 08:29:58;;;;;;;8.27;7.00;;;;;;;;;;4892842;29;20388;-73
2024/02/14 08:32:24;;;;;;;3.88;3.17;;;;;;;;;;4910742;29;20029;-72
2024/02/14 08:34:50;;;;;;;11.20;4.80;;;;;;;;;;4924623;29;20541;-73
2024/02/14 08:37:16;;;;;;;4.28;3.90;;;;;;;;;;4924133;29;20467;-72
2024/02/14 08:39:42;;;;;;;5.53;3.97;;;;;;;;;;4924208;29;20056;-72
2024/02/14 08:42:08;;;;;;;3.97;3.63;;;;;;;;;;4924678;29;20032;-72
2024/02/14 08:44:35;;;;;;;11.50;7.93;;;;;;;;;;4924274;29;20047;-72
2024/02/14 08:47:01;;;;;;;9.65;5.70;;;;;;;;;;4910233;29;20400;-72
2024/02/14 08:49:27;;;;;;;7.25;6.55;;;;;;;;;;4927896;29;20039;-72
2024/02/14 08:51:53;;;;;;;4.07;3.78;;;;;;;;;;4907967;29;20040;-72
2024/02/14 08:54:21;;;;;;;9.98;8.50;;;;;;;;;;4927550;29;20060;-72
2024/02/14 08:56:47;;;;;;;5.75;5.25;;;;;;;;;;4924676;28;20044;-72
2024/02/14 08:59:13;;;;;;;6.22;5.40;;;;;;;;;;4922008;29;20028;-72
2024/02/14 09:01:39;;;;;;;8.82;6.63;;;;;;;;;;4906423;29;20419;-71
2024/02/14 09:04:04;;;;;;;6.78;5.47;;;;;;;;;;4914004;29;20031;-72
2024/02/14 09:06:32;;;;;;;4.70;4.30;;;;;;;;;;4900555;29;20446;-71
2024/02/14 09:08:58;;;;;;;6.45;5.95;;;;;;;;;;4896124;29;20211;-73
2024/02/14 09:11:25;;;;;;;15.68;9.73;;;;;;;;;;4917045;29;20038;-73
2024/02/14 09:13:55;;;;;;;5.15;4.65;;;;;;;;;;4912029;29;20044;-73
2024/02/14 09:16:23;;;;;;;5.13;4.60;;;;;;;;;;4912969;29;20040;-73
2024/02/14 09:18:49;;;;;;;5.07;4.68;;;;;;;;;;4912064;29;20336;-74
2024/02/14 09:21:16;;;;;;;7.80;5.13;;;;;;;;;;4912837;29;20044;-73
2024/02/14 09:23:42;;;;;;;8.98;4.68;;;;;;;;;;4909504;29;20043;-73
2024/02/14 09:26:08;;;;;;;4.82;4.43;;;;;;;;;;4906526;29;20056;-73
2024/02/14 09:28:35;;;;;;;5.63;5.13;;;;;;;;;;4910746;29;20044;-74
2024/02/14 09:31:01;;;;;;;6.13;5.53;;;;;;;;;;4895999;29;20341;-73
2024/02/14 09:33:27;;;;;;;6.75;5.05;;;;;;;;;;4903407;29;20515;-72
2024/02/14 09:35:53;;;;;;;6.45;5.05;;;;;;;;;;4908605;29;20045;-73
2024/02/14 09:38:18;;;;;;;4.95;4.53;;;;;;;;;;4907895;29;20048;-72
2024/02/14 09:40:44;;;;;;;6.03;5.38;;;;;;;;;;4893974;29;20121;-73
2024/02/14 09:43:13;;;;;;;11.13;9.05;;;;;;;;;;4908553;29;20487;-70
2024/02/14 09:45:39;;;;;;;4.57;4.07;;;;;;;;;;4904491;29;20133;-78
2024/02/14 09:48:06;;;;;;;5.38;4.68;;;;;;;;;;4908170;29;20059;-76
2024/02/14 09:50:32;;;;;;;11.50;8.45;;;;;;;;;;4927728;29;20139;-77
2024/02/14 09:52:58;;;;;;;3.95;3.67;;;;;;;;;;4912151;29;20519;-77
2024/02/14 09:55:25;;;;;;;7.47;5.68;;;;;;;;;;4928421;29;20020;-75
2024/02/14 09:57:51;;;;;;;5.15;4.13;;;;;;;;;;4898731;29;20549;-76
2024/02/14 10:00:17;;;;;;;8.57;7.35;;;;;;;;;;4893412;29;20036;-76
2024/02/14 10:02:43;;;;;;;6.82;5.13;;;;;;;;;;4891130;29;20045;-76
2024/02/14 10:05:09;;;;;;;9.70;5.82;;;;;;;;;;4877882;29;20037;-77
2024/02/14 10:07:41;;;;;;;9.55;4.70;;;;;;;;;;4868185;29;20056;-77
2024/02/14 10:10:07;;;;;;;8.02;4.88;;;;;;;;;;4893745;29;20045;-76
2024/02/14 10:12:33;;;;;;;6.78;5.07;;;;;;;;;;4894226;29;20048;-76
2024/02/14 10:15:01;;;;;;;10.57;9.02;;;;;;;;;;4876828;29;20473;-77
2024/02/14 10:17:27;;;;;;;5.47;4.78;;;;;;;;;;4892772;29;20056;-77
2024/02/14 10:19:57;;;;;;;4.63;4.22;;;;;;;;;;4893452;29;20554;-77
2024/02/14 10:22:23;;;;;;;4.28;3.88;;;;;;;;;;4892919;29;20075;-76
2024/02/14 10:24:49;;;;;;;12.98;8.63;;;;;;;;;;4893415;29;20549;-76
2024/02/14 10:27:15;;;;;;;4.43;3.78;;;;;;;;;;4891469;29;20057;-76
2024/02/14 10:29:42;;;;;;;5.25;4.72;;;;;;;;;;4892717;29;20131;-76
2024/02/14 10:32:07;;;;;;;9.30;7.45;;;;;;;;;;4908058;29;20136;-76
2024/02/14 10:34:33;;;;;;;7.82;5.32;;;;;;;;;;4893876;29;20555;-77
2024/02/14 10:37:00;;;;;;;15.55;6.78;;;;;;;;;;4907139;29;20359;-76
2024/02/14 10:39:26;;;;;;;9.90;7.72;;;;;;;;;;4893337;29;20577;-76
2024/02/14 10:41:52;;;;;;;6.32;5.22;;;;;;;;;;4892470;29;20123;-77
2024/02/14 10:44:18;;;;;;;10.02;6.88;;;;;;;;;;4892625;29;20595;-76
2024/02/14 10:46:45;;;;;;;5.30;4.80;;;;;;;;;;4891574;29;20060;-75
2024/02/14 10:49:11;;;;;;;7.65;4.50;;;;;;;;;;4893511;29;20039;-77
2024/02/14 10:51:38;;;;;;;10.15;8.02;;;;;;;;;;4892012;29;20040;-77
2024/02/14 10:54:05;;;;;;;5.78;5.30;;;;;;;;;;4891607;29;20138;-76
2024/02/14 10:56:32;;;;;;;5.90;5.35;;;;;;;;;;4892601;29;20524;-76
2024/02/14 10:59:01;;;;;;;10.38;9.27;;;;;;;;;;4907404;29;20496;-78
2024/02/14 11:01:30;;;;;;;10.93;7.93;;;;;;;;;;4907968;29;20107;-76
2024/02/14 11:03:58;;;;;;;8.05;6.50;;;;;;;;;;4891839;29;20163;-76
2024/02/14 11:06:24;;;;;;;10.18;8.43;;;;;;;;;;4892054;29;20127;-76
2024/02/14 11:08:57;;;;;;;6.35;5.75;;;;;;;;;;4874679;29;20143;-77
2024/02/14 11:11:23;;;;;;;11.50;9.85;;;;;;;;;;4875716;29;20044;-77
2024/02/14 11:13:53;;;;;;;13.85;5.60;;;;;;;;;;4874019;29;20532;-76
2024/02/14 11:16:18;;;;;;;11.30;7.05;;;;;;;;;;4873521;29;20045;-76
2024/02/14 11:18:44;;;;;;;12.23;9.20;;;;;;;;;;4873257;29;20043;-76
2024/02/14 11:21:17;;;;;;;10.70;9.10;;;;;;;;;;4872552;29;20634;-76
2024/02/14 11:23:52;;;;;;;11.40;8.25;;;;;;;;;;4874305;29;20410;-76
2024/02/14 11:26:18;;;;;;;5.90;4.38;;;;;;;;;;4873571;29;20290;-76
2024/02/14 11:28:44;;;;;;;9.43;7.53;;;;;;;;;;4874320;29;20116;-76
2024/02/14 11:31:10;;;;;;;13.25;7.75;;;;;;;;;;4842499;29;20081;-76
2024/02/14 11:33:36;;;;;;;13.48;10.50;;;;;;;;;;4874554;29;20047;-77
2024/02/14 11:36:11;;;;;;;11.75;9.55;;;;;;;;;;4873989;29;20048;-76
2024/02/14 11:38:37;;;;;;;6.75;5.10;;;;;;;;;;4905739;29;20057;-76
2024/02/14 11:41:03;;;;;;;7.82;7.05;;;;;;;;;;4891228;29;20525;-76
2024/02/14 11:43:30;;;;;;;7.45;6.35;;;;;;;;;;4891737;29;20040;-76
2024/02/14 11:45:56;;;;;;;5.45;4.93;;;;;;;;;;4875686;29;20116;-76
2024/02/14 11:48:23;;;;;;;10.30;9.30;;;;;;;;;;4875547;29;20426;-76
2024/02/14 11:50:50;;;;;;;8.25;7.32;;;;;;;;;;4893036;29;20117;-77
2024/02/14 11:53:17;;;;;;;7.32;6.13;;;;;;;;;;4903198;29;20040;-77
2024/02/14 11:55:43;;;;;;;9.75;8.60;;;;;;;;;;4907953;29;20048;-77
2024/02/14 11:58:10;;;;;;;6.43;5.93;;;;;;;;;;4892767;29;20075;-76
2024/02/14 12:00:37;;;;;;;4.80;4.35;;;;;;;;;;4892673;29;20048;-76
2024/02/14 12:03:06;;;;;;;9.30;6.90;;;;;;;;;;4925855;29;20180;-76
2024/02/14 12:05:33;;;;;;;4.18;3.88;;;;;;;;;;4896565;29;20137;-76
2024/02/14 12:07:59;;;;;;;9.25;8.32;;;;;;;;;;4912280;29;20072;-77
2024/02/14 12:10:25;;;;;;;8.18;7.30;;;;;;;;;;4927414;29;20036;-75
2024/02/14 12:12:51;;;;;;;5.85;4.10;;;;;;;;;;4912528;29;20833;-77
2024/02/14 12:15:17;;;;;;;8.93;7.18;;;;;;;;;;4926679;29;20131;-76
2024/02/14 12:17:44;;;;;;;4.63;4.25;;;;;;;;;;4913956;29;20059;-76
2024/02/14 12:20:11;;;;;;;6.75;4.20;;;;;;;;;;4875124;29;20158;-76
2024/02/14 12:22:37;;;;;;;6.00;5.40;;;;;;;;;;4896915;29;20037;-75
2024/02/14 12:25:05;;;;;;;12.52;7.57;;;;;;;;;;4910122;29;20115;-76
2024/02/14 12:27:32;;;;;;;5.20;4.70;;;;;;;;;;4895304;29;20059;-76
2024/02/14 12:29:58;;;;;;;8.38;4.57;;;;;;;;;;4894241;29;20039;-78
2024/02/14 12:32:24;;;;;;;10.73;9.63;;;;;;;;;;4895978;29;20036;-75
2024/02/14 12:34:50;;;;;;;7.28;5.45;;;;;;;;;;4879036;29;20119;-76
2024/02/14 12:37:15;;;;;;;5.07;4.57;;;;;;;;;;4901112;29;20063;-76
2024/02/14 12:39:41;;;;;;;5.75;4.85;;;;;;;;;;4929439;29;20467;-76
2024/02/14 12:42:07;;;;;;;6.28;5.65;;;;;;;;;;4929624;29;20036;-76
2024/02/14 12:44:33;;;;;;;8.25;7.45;;;;;;;;;;4914889;29;20040;-76
2024/02/14 12:46:59;;;;;;;6.85;5.75;;;;;;;;;;4913501;29;20500;-77
2024/02/14 12:49:26;;;;;;;7.53;5.80;;;;;;;;;;4915135;29;20059;-75
2024/02/14 12:51:52;;;;;;;5.72;5.10;;;;;;;;;;4914812;29;20043;-76
2024/02/14 12:54:17;;;;;;;5.97;5.45;;;;;;;;;;4913923;29;20032;-76
2024/02/14 12:56:43;;;;;;;4.05;3.72;;;;;;;;;;4910242;29;20056;-76
2024/02/14 12:59:14;;;;;;;4.00;3.55;;;;;;;;;;4894484;29;20040;-77
2024/02/14 13:01:40;;;;;;;4.43;4.03;;;;;;;;;;4897511;29;20538;-76
2024/02/14 13:04:07;;;;;;;7.70;6.60;;;;;;;;;;4895971;29;20055;-77
2024/02/14 13:06:34;;;;;;;6.50;5.90;;;;;;;;;;4894286;28;20036;-76
2024/02/14 13:09:00;;;;;;;10.50;6.55;;;;;;;;;;4894261;29;20076;-76
2024/02/14 13:11:26;;;;;;;5.15;4.03;;;;;;;;;;4910682;29;20040;-75
2024/02/14 13:13:52;;;;;;;10.90;8.57;;;;;;;;;;4894289;29;20041;-76
2024/02/14 13:16:18;;;;;;;4.05;3.72;;;;;;;;;;4877404;29;20068;-75
2024/02/14 13:18:43;;;;;;;4.47;4.07;;;;;;;;;;4910261;29;20044;-76
2024/02/14 13:21:09;;;;;;;6.80;4.13;;;;;;;;;;4893884;29;20363;-76
2024/02/14 13:23:35;;;;;;;6.82;6.22;;;;;;;;;;4895574;29;20593;-77
2024/02/14 13:26:03;;;;;;;5.60;4.72;;;;;;;;;;4893959;29;20056;-76
2024/02/14 13:28:29;;;;;;;6.70;4.38;;;;;;;;;;4895894;29;20056;-77
2024/02/14 13:30:55;;;;;;;7.75;5.65;;;;;;;;;;4896895;29;20268;-77
2024/02/14 13:33:21;;;;;;;9.80;7.88;;;;;;;;;;4895721;29;20045;-76
2024/02/14 13:35:47;;;;;;;4.05;3.75;;;;;;;;;;4895012;29;20028;-76
2024/02/14 13:38:13;;;;;;;5.18;4.70;;;;;;;;;;4877272;29;20115;-76
2024/02/14 13:40:39;;;;;;;5.55;5.05;;;;;;;;;;4893212;29;20547;-75
2024/02/14 13:43:05;;;;;;;4.90;4.50;;;;;;;;;;4893558;29;20587;-74
2024/02/14 13:45:39;;;;;;;6.18;4.82;;;;;;;;;;4893830;29;20045;-76
2024/02/14 13:48:07;;;;;;;3.88;3.60;;;;;;;;;;4894165;29;20044;-76
2024/02/14 13:50:33;;;;;;;4.25;3.78;;;;;;;;;;4894247;29;20040;-77
2024/02/14 13:52:59;;;;;;;4.07;3.78;;;;;;;;;;4894805;29;20045;-76
2024/02/14 13:55:25;;;;;;;7.38;4.93;;;;;;;;;;4913618;29;20468;-76
2024/02/14 13:57:51;;;;;;;4.85;4.32;;;;;;;;;;4906255;29;20519;-76
2024/02/14 14:00:17;;;;;;;8.38;6.50;;;;;;;;;;4929710;29;20104;-76
2024/02/14 14:02:43;;;;;;;5.03;4.53;;;;;;;;;;4910983;29;20582;-77
2024/02/14 14:05:09;;;;;;;6.20;5.68;;;;;;;;;;4895780;29;20244;-76
2024/02/14 14:07:36;;;;;;;11.38;7.55;;;;;;;;;;4903442;29;20060;-76
2024/02/14 14:10:03;;;;;;;9.88;8.73;;;;;;;;;;4904668;29;20043;-76
2024/02/14 14:12:30;;;;;;;11.00;9.02;;;;;;;;;;4906405;29;20036;-76
2024/02/14 14:14:56;;;;;;;5.47;5.00;;;;;;;;;;4906991;29;20064;-76
2024/02/14 14:17:22;;;;;;;7.60;5.70;;;;;;;;;;4920592;29;20624;-76
2024/02/14 14:19:47;;;;;;;9.10;7.75;;;;;;;;;;4906051;29;20073;-76
2024/02/14 14:22:14;;;;;;;11.18;8.73;;;;;;;;;;4901939;29;20092;-77
2024/02/14 14:24:40;;;;;;;7.93;6.22;;;;;;;;;;4902638;29;20048;-76
2024/02/14 14:27:08;;;;;;;9.20;6.07;;;;;;;;;;4900525;29;20063;-74
2024/02/14 14:29:35;;;;;;;7.07;5.75;;;;;;;;;;4900723;29;20043;-76
2024/02/14 14:32:00;;;;;;;6.28;4.85;;;;;;;;;;4880408;29;20086;-77
2024/02/14 14:34:26;;;;;;;5.85;5.32;;;;;;;;;;4909600;29;20033;-76
2024/02/14 14:36:54;;;;;;;6.93;6.28;;;;;;;;;;4887782;29;20112;-77
2024/02/14 14:39:20;;;;;;;5.53;4.25;;;;;;;;;;4889250;29;20104;-76
2024/02/14 14:41:46;;;;;;;10.00;8.48;;;;;;;;;;4897110;29;20147;-76
2024/02/14 14:44:12;;;;;;;7.88;5.70;;;;;;;;;;4886627;29;20088;-77